sensor_id;sensor_type;location;lat;lon;timestamp;P1;durP1;ratioP1;P2;durP2;ratioP2
21258;SDS011;10787;53.364;-1.480;2023-11-18T00:00:19;27.33;;;12.33;;
21258;SDS011;10787;53.364;-1.480;2023-11-18T00:03:03;29.67;;;12.70;;
21258;SDS011;10787;53.364;-1.480;2023-11-18T00:05:49;23.10;;;11.67;;
21258;SDS011;10787;53.364;-1.480;2023-11-18T00:08:33;25.33;;;11.93;;
21258;SDS011;10787;53.364;-1.480;2023-11-18T00:11:18;22.33;;;11.37;;
21258;SDS011;10787;53.364;-1.480;2023-11-18T00:14:02;24.73;;;11.73;;
21258;SDS011;10787;53.364;-1.480;2023-11-18T00:16:48;20.67;;;11.53;;
21258;SDS011;10787;53.364;-1.480;2023-11-18T00:19:32;23.93;;;10.73;;
21258;SDS011;10787;53.364;-1.480;2023-11-18T00:22:18;20.17;;;10.40;;
21258;SDS011;10787;53.364;-1.480;2023-11-18T00:25:03;21.57;;;11.10;;
21258;SDS011;10787;53.364;-1.480;2023-11-18T00:27:54;21.57;;;10.90;;
21258;SDS011;10787;53.364;-1.480;2023-11-18T00:30:38;23.00;;;10.93;;
21258;SDS011;10787;53.364;-1.480;2023-11-18T00:33:23;26.97;;;10.77;;
21258;SDS011;10787;53.364;-1.480;2023-11-18T00:36:07;22.67;;;10.47;;
21258;SDS011;10787;53.364;-1.480;2023-11-18T00:38:52;18.03;;;10.30;;
21258;SDS011;10787;53.364;-1.480;2023-11-18T00:41:37;22.83;;;10.93;;
21258;SDS011;10787;53.364;-1.480;2023-11-18T00:44:21;19.37;;;9.77;;
21258;SDS011;10787;53.364;-1.480;2023-11-18T00:47:05;22.57;;;10.37;;
21258;SDS011;10787;53.364;-1.480;2023-11-18T00:49:49;20.10;;;8.83;;
21258;SDS011;10787;53.364;-1.480;2023-11-18T00:52:36;17.53;;;8.10;;
21258;SDS011;10787;53.364;-1.480;2023-11-18T00:55:25;13.90;;;6.23;;
21258;SDS011;10787;53.364;-1.480;2023-11-18T00:58:09;14.47;;;5.73;;
21258;SDS011;10787;53.364;-1.480;2023-11-18T01:00:54;12.50;;;6.13;;
21258;SDS011;10787;53.364;-1.480;2023-11-18T01:03:37;14.43;;;6.77;;
21258;SDS011;10787;53.364;-1.480;2023-11-18T01:06:22;19.47;;;6.70;;
21258;SDS011;10787;53.364;-1.480;2023-11-18T01:09:07;14.80;;;6.30;;
21258;SDS011;10787;53.364;-1.480;2023-11-18T01:11:53;13.77;;;5.80;;
21258;SDS011;10787;53.364;-1.480;2023-11-18T01:14:38;16.20;;;6.17;;
21258;SDS011;10787;53.364;-1.480;2023-11-18T01:17:23;16.03;;;6.40;;
21258;SDS011;10787;53.364;-1.480;2023-11-18T01:20:07;13.83;;;6.10;;
21258;SDS011;10787;53.364;-1.480;2023-11-18T01:22:53;14.90;;;6.33;;
21258;SDS011;10787;53.364;-1.480;2023-11-18T01:25:37;14.47;;;6.07;;
21258;SDS011;10787;53.364;-1.480;2023-11-18T01:28:23;13.47;;;5.90;;
21258;SDS011;10787;53.364;-1.480;2023-11-18T01:31:09;11.23;;;5.37;;
21258;SDS011;10787;53.364;-1.480;2023-11-18T01:33:55;12.57;;;5.90;;
21258;SDS011;10787;53.364;-1.480;2023-11-18T01:36:39;18.30;;;7.33;;
21258;SDS011;10787;53.364;-1.480;2023-11-18T01:39:23;17.00;;;8.37;;
21258;SDS011;10787;53.364;-1.480;2023-11-18T01:42:09;14.20;;;6.30;;
21258;SDS011;10787;53.364;-1.480;2023-11-18T01:44:53;15.73;;;6.77;;
21258;SDS011;10787;53.364;-1.480;2023-11-18T01:47:39;13.77;;;5.93;;
21258;SDS011;10787;53.364;-1.480;2023-11-18T01:50:24;15.47;;;5.70;;
21258;SDS011;10787;53.364;-1.480;2023-11-18T01:53:09;10.33;;;5.10;;
21258;SDS011;10787;53.364;-1.480;2023-11-18T01:55:54;14.97;;;5.30;;
21258;SDS011;10787;53.364;-1.480;2023-11-18T01:58:39;12.37;;;5.43;;
21258;SDS011;10787;53.364;-1.480;2023-11-18T02:01:26;11.63;;;4.97;;
21258;SDS011;10787;53.364;-1.480;2023-11-18T02:04:12;10.47;;;4.90;;
21258;SDS011;10787;53.364;-1.480;2023-11-18T02:06:56;11.23;;;4.97;;
21258;SDS011;10787;53.364;-1.480;2023-11-18T02:09:41;12.23;;;4.97;;
21258;SDS011;10787;53.364;-1.480;2023-11-18T02:12:31;8.80;;;4.43;;
21258;SDS011;10787;53.364;-1.480;2023-11-18T02:15:36;7.57;;;4.40;;
21258;SDS011;10787;53.364;-1.480;2023-11-18T02:18:26;7.40;;;4.10;;
21258;SDS011;10787;53.364;-1.480;2023-11-18T02:21:12;6.67;;;3.57;;
21258;SDS011;10787;53.364;-1.480;2023-11-18T02:23:57;6.47;;;3.63;;
21258;SDS011;10787;53.364;-1.480;2023-11-18T02:26:42;7.43;;;3.50;;
21258;SDS011;10787;53.364;-1.480;2023-11-18T02:29:27;6.07;;;3.43;;
21258;SDS011;10787;53.364;-1.480;2023-11-18T02:35:23;8.33;;;3.40;;
21258;SDS011;10787;53.364;-1.480;2023-11-18T02:38:14;6.00;;;3.40;;
21258;SDS011;10787;53.364;-1.480;2023-11-18T02:41:08;6.77;;;3.47;;
21258;SDS011;10787;53.364;-1.480;2023-11-18T02:43:56;10.60;;;3.47;;
21258;SDS011;10787;53.364;-1.480;2023-11-18T02:46:41;6.00;;;3.60;;
21258;SDS011;10787;53.364;-1.480;2023-11-18T02:49:27;7.93;;;3.57;;
21258;SDS011;10787;53.364;-1.480;2023-11-18T02:52:13;7.37;;;3.07;;
21258;SDS011;10787;53.364;-1.480;2023-11-18T02:54:57;8.00;;;2.93;;
21258;SDS011;10787;53.364;-1.480;2023-11-18T02:57:41;3.90;;;2.40;;
21258;SDS011;10787;53.364;-1.480;2023-11-18T03:00:25;3.67;;;2.30;;
21258;SDS011;10787;53.364;-1.480;2023-11-18T03:03:10;2.67;;;2.00;;
21258;SDS011;10787;53.364;-1.480;2023-11-18T03:05:54;2.50;;;1.83;;
21258;SDS011;10787;53.364;-1.480;2023-11-18T03:08:39;3.00;;;1.77;;
21258;SDS011;10787;53.364;-1.480;2023-11-18T03:11:25;3.77;;;1.80;;
21258;SDS011;10787;53.364;-1.480;2023-11-18T03:14:11;3.43;;;1.77;;
21258;SDS011;10787;53.364;-1.480;2023-11-18T03:16:55;2.93;;;1.60;;
21258;SDS011;10787;53.364;-1.480;2023-11-18T03:19:39;2.67;;;1.70;;
21258;SDS011;10787;53.364;-1.480;2023-11-18T03:22:25;2.33;;;1.53;;
21258;SDS011;10787;53.364;-1.480;2023-11-18T03:25:10;3.10;;;1.73;;
21258;SDS011;10787;53.364;-1.480;2023-11-18T03:27:55;3.53;;;2.20;;
21258;SDS011;10787;53.364;-1.480;2023-11-18T03:30:39;4.27;;;1.83;;
21258;SDS011;10787;53.364;-1.480;2023-11-18T03:33:25;2.70;;;2.10;;
21258;SDS011;10787;53.364;-1.480;2023-11-18T03:36:10;2.30;;;1.83;;
21258;SDS011;10787;53.364;-1.480;2023-11-18T03:38:55;3.07;;;1.97;;
21258;SDS011;10787;53.364;-1.480;2023-11-18T03:41:40;3.23;;;2.00;;
21258;SDS011;10787;53.364;-1.480;2023-11-18T03:44:27;2.90;;;1.67;;
21258;SDS011;10787;53.364;-1.480;2023-11-18T03:47:13;2.67;;;1.60;;
21258;SDS011;10787;53.364;-1.480;2023-11-18T03:49:57;2.60;;;1.90;;
21258;SDS011;10787;53.364;-1.480;2023-11-18T03:52:42;7.37;;;1.70;;
21258;SDS011;10787;53.364;-1.480;2023-11-18T03:55:26;16.17;;;2.27;;
21258;SDS011;10787;53.364;-1.480;2023-11-18T03:58:11;4.63;;;1.50;;
21258;SDS011;10787;53.364;-1.480;2023-11-18T04:00:55;3.00;;;1.43;;
21258;SDS011;10787;53.364;-1.480;2023-11-18T04:03:40;2.50;;;1.57;;
21258;SDS011;10787;53.364;-1.480;2023-11-18T04:06:25;3.90;;;1.20;;
21258;SDS011;10787;53.364;-1.480;2023-11-18T04:09:09;2.33;;;1.50;;
21258;SDS011;10787;53.364;-1.480;2023-11-18T04:11:54;2.17;;;1.30;;
21258;SDS011;10787;53.364;-1.480;2023-11-18T04:14:38;3.20;;;1.40;;
21258;SDS011;10787;53.364;-1.480;2023-11-18T04:17:22;1.40;;;1.30;;
21258;SDS011;10787;53.364;-1.480;2023-11-18T04:20:09;1.63;;;1.13;;
21258;SDS011;10787;53.364;-1.480;2023-11-18T04:22:54;1.43;;;1.10;;
21258;SDS011;10787;53.364;-1.480;2023-11-18T04:25:39;1.40;;;1.00;;
21258;SDS011;10787;53.364;-1.480;2023-11-18T04:28:23;1.57;;;1.10;;
21258;SDS011;10787;53.364;-1.480;2023-11-18T04:31:07;1.70;;;1.03;;
21258;SDS011;10787;53.364;-1.480;2023-11-18T04:33:52;1.30;;;1.10;;
21258;SDS011;10787;53.364;-1.480;2023-11-18T04:36:40;2.90;;;1.30;;
21258;SDS011;10787;53.364;-1.480;2023-11-18T04:39:25;1.50;;;1.37;;
21258;SDS011;10787;53.364;-1.480;2023-11-18T04:42:09;2.07;;;1.40;;
21258;SDS011;10787;53.364;-1.480;2023-11-18T04:44:53;1.80;;;1.50;;
21258;SDS011;10787;53.364;-1.480;2023-11-18T04:47:38;2.10;;;1.50;;
21258;SDS011;10787;53.364;-1.480;2023-11-18T04:50:22;2.10;;;1.83;;
21258;SDS011;10787;53.364;-1.480;2023-11-18T04:53:07;3.73;;;1.97;;
21258;SDS011;10787;53.364;-1.480;2023-11-18T04:55:54;1.93;;;1.63;;
21258;SDS011;10787;53.364;-1.480;2023-11-18T04:58:38;3.93;;;1.77;;
21258;SDS011;10787;53.364;-1.480;2023-11-18T05:01:23;3.97;;;1.80;;
21258;SDS011;10787;53.364;-1.480;2023-11-18T05:04:07;2.23;;;1.60;;
21258;SDS011;10787;53.364;-1.480;2023-11-18T05:06:51;2.30;;;1.60;;
21258;SDS011;10787;53.364;-1.480;2023-11-18T05:09:35;2.47;;;1.73;;
21258;SDS011;10787;53.364;-1.480;2023-11-18T05:12:21;2.00;;;1.80;;
21258;SDS011;10787;53.364;-1.480;2023-11-18T05:15:06;1.93;;;1.60;;
21258;SDS011;10787;53.364;-1.480;2023-11-18T05:17:51;2.43;;;1.80;;
21258;SDS011;10787;53.364;-1.480;2023-11-18T05:20:36;1.93;;;1.60;;
21258;SDS011;10787;53.364;-1.480;2023-11-18T05:23:20;2.20;;;1.80;;
21258;SDS011;10787;53.364;-1.480;2023-11-18T05:26:05;2.67;;;1.80;;
21258;SDS011;10787;53.364;-1.480;2023-11-18T05:28:49;2.60;;;2.00;;
21258;SDS011;10787;53.364;-1.480;2023-11-18T05:31:34;2.40;;;2.00;;
21258;SDS011;10787;53.364;-1.480;2023-11-18T05:34:18;2.87;;;1.80;;
21258;SDS011;10787;53.364;-1.480;2023-11-18T05:37:04;2.50;;;2.03;;
21258;SDS011;10787;53.364;-1.480;2023-11-18T05:39:48;2.60;;;2.20;;
21258;SDS011;10787;53.364;-1.480;2023-11-18T05:42:37;2.10;;;1.80;;
21258;SDS011;10787;53.364;-1.480;2023-11-18T05:45:24;2.60;;;2.00;;
21258;SDS011;10787;53.364;-1.480;2023-11-18T05:48:11;2.43;;;2.13;;
21258;SDS011;10787;53.364;-1.480;2023-11-18T05:50:56;2.93;;;2.27;;
21258;SDS011;10787;53.364;-1.480;2023-11-18T05:53:40;2.87;;;2.33;;
21258;SDS011;10787;53.364;-1.480;2023-11-18T05:56:27;3.37;;;2.30;;
21258;SDS011;10787;53.364;-1.480;2023-11-18T05:59:11;5.40;;;2.67;;
21258;SDS011;10787;53.364;-1.480;2023-11-18T06:01:56;2.80;;;2.40;;
21258;SDS011;10787;53.364;-1.480;2023-11-18T06:04:40;6.77;;;2.70;;
21258;SDS011;10787;53.364;-1.480;2023-11-18T06:07:25;14.27;;;2.70;;
21258;SDS011;10787;53.364;-1.480;2023-11-18T06:10:11;4.37;;;2.70;;
21258;SDS011;10787;53.364;-1.480;2023-11-18T06:12:55;3.50;;;2.80;;
21258;SDS011;10787;53.364;-1.480;2023-11-18T06:15:41;2.93;;;2.40;;
21258;SDS011;10787;53.364;-1.480;2023-11-18T06:18:26;2.90;;;2.23;;
21258;SDS011;10787;53.364;-1.480;2023-11-18T06:21:15;3.07;;;2.13;;
21258;SDS011;10787;53.364;-1.480;2023-11-18T06:24:04;2.73;;;2.20;;
21258;SDS011;10787;53.364;-1.480;2023-11-18T06:26:49;2.40;;;2.00;;
21258;SDS011;10787;53.364;-1.480;2023-11-18T06:29:34;2.53;;;2.00;;
21258;SDS011;10787;53.364;-1.480;2023-11-18T06:32:18;2.83;;;2.10;;
21258;SDS011;10787;53.364;-1.480;2023-11-18T06:35:03;2.77;;;2.10;;
21258;SDS011;10787;53.364;-1.480;2023-11-18T06:37:49;2.53;;;2.00;;
21258;SDS011;10787;53.364;-1.480;2023-11-18T06:40:33;2.60;;;2.10;;
21258;SDS011;10787;53.364;-1.480;2023-11-18T06:43:19;2.87;;;2.47;;
21258;SDS011;10787;53.364;-1.480;2023-11-18T06:46:03;3.23;;;2.43;;
21258;SDS011;10787;53.364;-1.480;2023-11-18T06:48:52;3.13;;;2.40;;
21258;SDS011;10787;53.364;-1.480;2023-11-18T06:51:41;3.47;;;2.63;;
21258;SDS011;10787;53.364;-1.480;2023-11-18T06:54:25;3.67;;;2.60;;
21258;SDS011;10787;53.364;-1.480;2023-11-18T06:57:11;4.00;;;2.80;;
21258;SDS011;10787;53.364;-1.480;2023-11-18T06:59:56;4.60;;;3.53;;
21258;SDS011;10787;53.364;-1.480;2023-11-18T07:02:40;66.13;;;7.20;;
21258;SDS011;10787;53.364;-1.480;2023-11-18T07:05:25;20.27;;;5.33;;
21258;SDS011;10787;53.364;-1.480;2023-11-18T07:08:09;7.43;;;4.07;;
21258;SDS011;10787;53.364;-1.480;2023-11-18T07:10:53;4.90;;;3.27;;
21258;SDS011;10787;53.364;-1.480;2023-11-18T07:13:38;4.50;;;3.50;;
21258;SDS011;10787;53.364;-1.480;2023-11-18T07:16:23;5.37;;;3.60;;
21258;SDS011;10787;53.364;-1.480;2023-11-18T07:19:08;6.40;;;3.30;;
21258;SDS011;10787;53.364;-1.480;2023-11-18T07:21:53;5.03;;;2.90;;
21258;SDS011;10787;53.364;-1.480;2023-11-18T07:24:37;3.90;;;2.70;;
21258;SDS011;10787;53.364;-1.480;2023-11-18T07:27:21;5.30;;;2.70;;
21258;SDS011;10787;53.364;-1.480;2023-11-18T07:30:06;3.97;;;2.90;;
21258;SDS011;10787;53.364;-1.480;2023-11-18T07:32:54;5.17;;;3.30;;
21258;SDS011;10787;53.364;-1.480;2023-11-18T07:35:39;5.40;;;3.10;;
21258;SDS011;10787;53.364;-1.480;2023-11-18T07:38:24;5.13;;;3.20;;
21258;SDS011;10787;53.364;-1.480;2023-11-18T07:41:09;4.40;;;3.23;;
21258;SDS011;10787;53.364;-1.480;2023-11-18T07:44:05;7.67;;;3.90;;
21258;SDS011;10787;53.364;-1.480;2023-11-18T07:46:51;8.03;;;4.10;;
21258;SDS011;10787;53.364;-1.480;2023-11-18T07:49:35;5.27;;;3.47;;
21258;SDS011;10787;53.364;-1.480;2023-11-18T07:52:19;7.00;;;3.67;;
21258;SDS011;10787;53.364;-1.480;2023-11-18T07:55:04;5.40;;;3.67;;
21258;SDS011;10787;53.364;-1.480;2023-11-18T07:57:49;5.20;;;3.37;;
21258;SDS011;10787;53.364;-1.480;2023-11-18T08:00:33;5.00;;;3.60;;
21258;SDS011;10787;53.364;-1.480;2023-11-18T08:03:19;7.20;;;4.23;;
21258;SDS011;10787;53.364;-1.480;2023-11-18T08:06:04;5.00;;;3.50;;
21258;SDS011;10787;53.364;-1.480;2023-11-18T08:08:50;5.60;;;3.23;;
21258;SDS011;10787;53.364;-1.480;2023-11-18T08:11:36;27.57;;;5.47;;
21258;SDS011;10787;53.364;-1.480;2023-11-18T08:14:20;5.33;;;3.40;;
21258;SDS011;10787;53.364;-1.480;2023-11-18T08:17:06;9.67;;;3.13;;
21258;SDS011;10787;53.364;-1.480;2023-11-18T08:19:50;6.53;;;3.87;;
21258;SDS011;10787;53.364;-1.480;2023-11-18T08:22:35;4.87;;;3.33;;
21258;SDS011;10787;53.364;-1.480;2023-11-18T08:25:20;4.03;;;3.23;;
21258;SDS011;10787;53.364;-1.480;2023-11-18T08:28:05;9.67;;;3.50;;
21258;SDS011;10787;53.364;-1.480;2023-11-18T08:30:51;5.33;;;3.60;;
21258;SDS011;10787;53.364;-1.480;2023-11-18T08:33:36;6.03;;;4.17;;
21258;SDS011;10787;53.364;-1.480;2023-11-18T08:36:20;10.33;;;6.33;;
21258;SDS011;10787;53.364;-1.480;2023-11-18T08:39:10;7.37;;;4.20;;
21258;SDS011;10787;53.364;-1.480;2023-11-18T08:41:54;11.27;;;5.23;;
21258;SDS011;10787;53.364;-1.480;2023-11-18T08:44:40;8.43;;;4.73;;
21258;SDS011;10787;53.364;-1.480;2023-11-18T08:47:23;8.47;;;5.50;;
21258;SDS011;10787;53.364;-1.480;2023-11-18T08:50:08;11.47;;;4.83;;
21258;SDS011;10787;53.364;-1.480;2023-11-18T08:52:55;7.80;;;4.77;;
21258;SDS011;10787;53.364;-1.480;2023-11-18T08:55:43;7.03;;;4.20;;
21258;SDS011;10787;53.364;-1.480;2023-11-18T08:58:37;7.47;;;4.47;;
21258;SDS011;10787;53.364;-1.480;2023-11-18T09:01:23;10.73;;;5.30;;
21258;SDS011;10787;53.364;-1.480;2023-11-18T09:04:11;8.90;;;4.80;;
21258;SDS011;10787;53.364;-1.480;2023-11-18T09:06:55;8.20;;;4.93;;
21258;SDS011;10787;53.364;-1.480;2023-11-18T09:09:44;7.87;;;4.70;;
21258;SDS011;10787;53.364;-1.480;2023-11-18T09:12:28;9.27;;;4.60;;
21258;SDS011;10787;53.364;-1.480;2023-11-18T09:15:13;13.07;;;6.33;;
21258;SDS011;10787;53.364;-1.480;2023-11-18T09:18:05;17.67;;;7.70;;
21258;SDS011;10787;53.364;-1.480;2023-11-18T09:20:53;10.70;;;6.90;;
21258;SDS011;10787;53.364;-1.480;2023-11-18T09:23:45;8.47;;;5.37;;
21258;SDS011;10787;53.364;-1.480;2023-11-18T09:26:31;8.67;;;5.53;;
21258;SDS011;10787;53.364;-1.480;2023-11-18T09:29:16;9.80;;;5.90;;
21258;SDS011;10787;53.364;-1.480;2023-11-18T09:32:02;8.97;;;5.73;;
21258;SDS011;10787;53.364;-1.480;2023-11-18T09:34:49;9.13;;;5.50;;
21258;SDS011;10787;53.364;-1.480;2023-11-18T09:37:34;10.77;;;6.17;;
21258;SDS011;10787;53.364;-1.480;2023-11-18T09:40:18;10.03;;;6.10;;
21258;SDS011;10787;53.364;-1.480;2023-11-18T09:43:08;11.20;;;6.47;;
21258;SDS011;10787;53.364;-1.480;2023-11-18T09:45:55;11.87;;;7.47;;
21258;SDS011;10787;53.364;-1.480;2023-11-18T09:48:42;12.30;;;7.90;;
21258;SDS011;10787;53.364;-1.480;2023-11-18T09:51:38;15.70;;;8.87;;
21258;SDS011;10787;53.364;-1.480;2023-11-18T09:57:37;16.57;;;9.03;;
21258;SDS011;10787;53.364;-1.480;2023-11-18T10:00:25;15.30;;;8.87;;
21258;SDS011;10787;53.364;-1.480;2023-11-18T10:03:16;14.37;;;8.40;;
21258;SDS011;10787;53.364;-1.480;2023-11-18T10:06:00;14.80;;;8.77;;
21258;SDS011;10787;53.364;-1.480;2023-11-18T10:08:48;14.73;;;8.93;;
21258;SDS011;10787;53.364;-1.480;2023-11-18T10:11:36;17.07;;;8.77;;
21258;SDS011;10787;53.364;-1.480;2023-11-18T10:14:20;14.90;;;8.80;;
21258;SDS011;10787;53.364;-1.480;2023-11-18T10:17:06;16.97;;;9.30;;
21258;SDS011;10787;53.364;-1.480;2023-11-18T10:19:55;14.43;;;8.87;;
21258;SDS011;10787;53.364;-1.480;2023-11-18T10:22:40;18.33;;;9.20;;
21258;SDS011;10787;53.364;-1.480;2023-11-18T10:25:24;16.97;;;8.63;;
21258;SDS011;10787;53.364;-1.480;2023-11-18T10:28:08;13.57;;;8.33;;
21258;SDS011;10787;53.364;-1.480;2023-11-18T10:31:08;15.33;;;9.60;;
21258;SDS011;10787;53.364;-1.480;2023-11-18T10:33:57;14.07;;;9.20;;
21258;SDS011;10787;53.364;-1.480;2023-11-18T10:36:41;15.57;;;9.37;;
21258;SDS011;10787;53.364;-1.480;2023-11-18T10:39:46;11.60;;;7.60;;
21258;SDS011;10787;53.364;-1.480;2023-11-18T10:42:35;9.57;;;6.45;;
21258;SDS011;10787;53.364;-1.480;2023-11-18T10:45:23;8.03;;;4.90;;
21258;SDS011;10787;53.364;-1.480;2023-11-18T10:48:11;16.45;;;9.70;;
21258;SDS011;10787;53.364;-1.480;2023-11-18T10:50:59;12.63;;;7.50;;
21258;SDS011;10787;53.364;-1.480;2023-11-18T10:53:48;8.65;;;5.40;;
21258;SDS011;10787;53.364;-1.480;2023-11-18T10:56:48;6.47;;;4.72;;
21258;SDS011;10787;53.364;-1.480;2023-11-18T10:59:33;3.33;;;2.33;;
21258;SDS011;10787;53.364;-1.480;2023-11-18T11:02:18;2.75;;;1.70;;
21258;SDS011;10787;53.364;-1.480;2023-11-18T11:05:05;1.75;;;1.30;;
21258;SDS011;10787;53.364;-1.480;2023-11-18T11:07:58;2.03;;;1.48;;
21258;SDS011;10787;53.364;-1.480;2023-11-18T11:10:46;2.22;;;1.23;;
21258;SDS011;10787;53.364;-1.480;2023-11-18T11:13:33;3.72;;;1.30;;
21258;SDS011;10787;53.364;-1.480;2023-11-18T11:16:18;3.42;;;1.20;;
21258;SDS011;10787;53.364;-1.480;2023-11-18T11:19:03;3.50;;;1.10;;
21258;SDS011;10787;53.364;-1.480;2023-11-18T11:22:00;2.17;;;1.10;;
21258;SDS011;10787;53.364;-1.480;2023-11-18T11:29:07;3.65;;;1.38;;
21258;SDS011;10787;53.364;-1.480;2023-11-18T11:31:31;2.13;;;1.00;;
21258;SDS011;10787;53.364;-1.480;2023-11-18T11:34:21;2.33;;;0.90;;
21258;SDS011;10787;53.364;-1.480;2023-11-18T11:37:10;1.17;;;0.93;;
21258;SDS011;10787;53.364;-1.480;2023-11-18T11:39:57;1.42;;;0.90;;
21258;SDS011;10787;53.364;-1.480;2023-11-18T11:42:42;1.35;;;0.80;;
21258;SDS011;10787;53.364;-1.480;2023-11-18T11:45:27;2.13;;;0.90;;
21258;SDS011;10787;53.364;-1.480;2023-11-18T11:48:14;4.80;;;1.20;;
21258;SDS011;10787;53.364;-1.480;2023-11-18T11:54:25;1.70;;;1.00;;
21258;SDS011;10787;53.364;-1.480;2023-11-18T11:57:14;1.92;;;1.00;;
21258;SDS011;10787;53.364;-1.480;2023-11-18T11:59:58;1.67;;;0.80;;
21258;SDS011;10787;53.364;-1.480;2023-11-18T12:02:51;2.08;;;0.95;;
21258;SDS011;10787;53.364;-1.480;2023-11-18T12:05:39;2.28;;;1.00;;
21258;SDS011;10787;53.364;-1.480;2023-11-18T12:08:27;3.47;;;1.30;;
21258;SDS011;10787;53.364;-1.480;2023-11-18T12:11:13;3.92;;;1.35;;
21258;SDS011;10787;53.364;-1.480;2023-11-18T12:14:00;3.10;;;1.30;;
21258;SDS011;10787;53.364;-1.480;2023-11-18T12:17:08;2.60;;;1.35;;
21258;SDS011;10787;53.364;-1.480;2023-11-18T12:19:52;2.53;;;1.17;;
21258;SDS011;10787;53.364;-1.480;2023-11-18T12:23:25;3.10;;;1.20;;
21258;SDS011;10787;53.364;-1.480;2023-11-18T12:26:38;2.25;;;1.08;;
21258;SDS011;10787;53.364;-1.480;2023-11-18T12:29:33;2.70;;;1.00;;
21258;SDS011;10787;53.364;-1.480;2023-11-18T12:32:57;4.05;;;1.20;;
21258;SDS011;10787;53.364;-1.480;2023-11-18T12:41:41;4.07;;;1.30;;
21258;SDS011;10787;53.364;-1.480;2023-11-18T12:47:19;3.00;;;1.20;;
21258;SDS011;10787;53.364;-1.480;2023-11-18T12:50:12;3.88;;;1.30;;
21258;SDS011;10787;53.364;-1.480;2023-11-18T12:53:07;4.68;;;1.00;;
21258;SDS011;10787;53.364;-1.480;2023-11-18T12:55:52;2.00;;;1.13;;
21258;SDS011;10787;53.364;-1.480;2023-11-18T12:58:37;3.88;;;1.27;;
21258;SDS011;10787;53.364;-1.480;2023-11-18T13:01:23;4.70;;;1.48;;
21258;SDS011;10787;53.364;-1.480;2023-11-18T13:04:07;5.38;;;1.30;;
21258;SDS011;10787;53.364;-1.480;2023-11-18T13:06:52;3.15;;;1.40;;
21258;SDS011;10787;53.364;-1.480;2023-11-18T13:09:38;5.28;;;1.17;;
21258;SDS011;10787;53.364;-1.480;2023-11-18T13:12:24;3.60;;;1.42;;
21258;SDS011;10787;53.364;-1.480;2023-11-18T13:15:11;3.95;;;1.30;;
21258;SDS011;10787;53.364;-1.480;2023-11-18T13:18:03;5.22;;;1.20;;
21258;SDS011;10787;53.364;-1.480;2023-11-18T13:20:54;4.40;;;1.42;;
21258;SDS011;10787;53.364;-1.480;2023-11-18T13:23:41;4.00;;;1.40;;
21258;SDS011;10787;53.364;-1.480;2023-11-18T13:26:28;4.35;;;1.38;;
21258;SDS011;10787;53.364;-1.480;2023-11-18T13:29:17;4.57;;;1.35;;
21258;SDS011;10787;53.364;-1.480;2023-11-18T13:32:01;7.82;;;2.58;;
21258;SDS011;10787;53.364;-1.480;2023-11-18T13:34:50;5.32;;;1.77;;
21258;SDS011;10787;53.364;-1.480;2023-11-18T13:37:34;4.60;;;1.60;;
21258;SDS011;10787;53.364;-1.480;2023-11-18T13:40:19;7.80;;;1.63;;
21258;SDS011;10787;53.364;-1.480;2023-11-18T13:43:03;8.55;;;1.85;;
21258;SDS011;10787;53.364;-1.480;2023-11-18T13:45:52;8.50;;;1.90;;
21258;SDS011;10787;53.364;-1.480;2023-11-18T13:48:36;8.57;;;1.92;;
21258;SDS011;10787;53.364;-1.480;2023-11-18T13:51:24;9.63;;;2.00;;
21258;SDS011;10787;53.364;-1.480;2023-11-18T13:54:08;7.68;;;1.88;;
21258;SDS011;10787;53.364;-1.480;2023-11-18T13:56:53;7.47;;;2.00;;
21258;SDS011;10787;53.364;-1.480;2023-11-18T13:59:41;5.32;;;2.17;;
21258;SDS011;10787;53.364;-1.480;2023-11-18T14:02:27;8.07;;;2.17;;
21258;SDS011;10787;53.364;-1.480;2023-11-18T14:05:15;7.90;;;2.10;;
21258;SDS011;10787;53.364;-1.480;2023-11-18T14:08:05;8.82;;;2.10;;
21258;SDS011;10787;53.364;-1.480;2023-11-18T14:10:52;8.80;;;2.28;;
21258;SDS011;10787;53.364;-1.480;2023-11-18T14:13:36;6.60;;;2.20;;
21258;SDS011;10787;53.364;-1.480;2023-11-18T14:16:21;9.23;;;2.30;;
21258;SDS011;10787;53.364;-1.480;2023-11-18T14:19:07;7.82;;;2.22;;
21258;SDS011;10787;53.364;-1.480;2023-11-18T14:21:51;6.28;;;2.20;;
21258;SDS011;10787;53.364;-1.480;2023-11-18T14:24:36;9.45;;;2.60;;
21258;SDS011;10787;53.364;-1.480;2023-11-18T14:27:22;11.07;;;2.42;;
21258;SDS011;10787;53.364;-1.480;2023-11-18T14:30:06;10.77;;;2.25;;
21258;SDS011;10787;53.364;-1.480;2023-11-18T14:32:52;7.95;;;2.17;;
21258;SDS011;10787;53.364;-1.480;2023-11-18T14:35:37;7.60;;;2.25;;
21258;SDS011;10787;53.364;-1.480;2023-11-18T14:38:24;10.68;;;2.30;;
21258;SDS011;10787;53.364;-1.480;2023-11-18T14:41:08;8.35;;;2.40;;
21258;SDS011;10787;53.364;-1.480;2023-11-18T14:43:52;10.80;;;2.53;;
21258;SDS011;10787;53.364;-1.480;2023-11-18T14:46:36;11.52;;;2.70;;
21258;SDS011;10787;53.364;-1.480;2023-11-18T14:49:24;8.73;;;2.50;;
21258;SDS011;10787;53.364;-1.480;2023-11-18T14:52:08;8.60;;;2.20;;
21258;SDS011;10787;53.364;-1.480;2023-11-18T14:54:52;8.80;;;2.67;;
21258;SDS011;10787;53.364;-1.480;2023-11-18T14:57:36;8.45;;;2.97;;
21258;SDS011;10787;53.364;-1.480;2023-11-18T15:00:22;8.48;;;2.60;;
21258;SDS011;10787;53.364;-1.480;2023-11-18T15:03:09;10.02;;;2.65;;
21258;SDS011;10787;53.364;-1.480;2023-11-18T15:05:53;11.98;;;3.70;;
21258;SDS011;10787;53.364;-1.480;2023-11-18T15:08:38;10.30;;;2.92;;
21258;SDS011;10787;53.364;-1.480;2023-11-18T15:11:25;10.23;;;2.97;;
21258;SDS011;10787;53.364;-1.480;2023-11-18T15:14:09;8.55;;;2.45;;
21258;SDS011;10787;53.364;-1.480;2023-11-18T15:16:55;12.27;;;2.92;;
21258;SDS011;10787;53.364;-1.480;2023-11-18T15:19:40;12.90;;;2.50;;
21258;SDS011;10787;53.364;-1.480;2023-11-18T15:22:24;11.70;;;2.72;;
21258;SDS011;10787;53.364;-1.480;2023-11-18T15:25:08;8.70;;;2.42;;
21258;SDS011;10787;53.364;-1.480;2023-11-18T15:27:55;9.90;;;2.40;;
21258;SDS011;10787;53.364;-1.480;2023-11-18T15:30:40;14.48;;;2.95;;
21258;SDS011;10787;53.364;-1.480;2023-11-18T15:33:25;13.13;;;2.88;;
21258;SDS011;10787;53.364;-1.480;2023-11-18T15:36:09;8.45;;;2.40;;
21258;SDS011;10787;53.364;-1.480;2023-11-18T15:38:55;8.85;;;2.80;;
21258;SDS011;10787;53.364;-1.480;2023-11-18T15:41:46;8.70;;;2.53;;
21258;SDS011;10787;53.364;-1.480;2023-11-18T15:44:31;10.95;;;2.53;;
21258;SDS011;10787;53.364;-1.480;2023-11-18T15:47:17;9.88;;;2.75;;
21258;SDS011;10787;53.364;-1.480;2023-11-18T15:50:01;14.80;;;3.45;;
21258;SDS011;10787;53.364;-1.480;2023-11-18T15:52:47;15.27;;;3.22;;
21258;SDS011;10787;53.364;-1.480;2023-11-18T15:55:33;12.93;;;3.10;;
21258;SDS011;10787;53.364;-1.480;2023-11-18T15:58:19;15.27;;;3.25;;
21258;SDS011;10787;53.364;-1.480;2023-11-18T16:01:06;16.90;;;3.25;;
21258;SDS011;10787;53.364;-1.480;2023-11-18T16:03:51;15.52;;;3.20;;
21258;SDS011;10787;53.364;-1.480;2023-11-18T16:06:35;17.30;;;3.53;;
21258;SDS011;10787;53.364;-1.480;2023-11-18T16:09:20;18.42;;;4.70;;
21258;SDS011;10787;53.364;-1.480;2023-11-18T16:12:05;21.98;;;4.90;;
21258;SDS011;10787;53.364;-1.480;2023-11-18T16:14:50;20.17;;;4.20;;
21258;SDS011;10787;53.364;-1.480;2023-11-18T16:17:34;16.05;;;4.00;;
21258;SDS011;10787;53.364;-1.480;2023-11-18T16:20:19;18.83;;;3.42;;
21258;SDS011;10787;53.364;-1.480;2023-11-18T16:23:07;25.30;;;4.50;;
21258;SDS011;10787;53.364;-1.480;2023-11-18T16:25:53;17.17;;;3.97;;
21258;SDS011;10787;53.364;-1.480;2023-11-18T16:28:37;20.30;;;4.47;;
21258;SDS011;10787;53.364;-1.480;2023-11-18T16:31:22;22.42;;;4.40;;
21258;SDS011;10787;53.364;-1.480;2023-11-18T16:34:06;18.58;;;4.38;;
21258;SDS011;10787;53.364;-1.480;2023-11-18T16:36:50;17.73;;;4.32;;
21258;SDS011;10787;53.364;-1.480;2023-11-18T16:39:40;24.67;;;5.00;;
21258;SDS011;10787;53.364;-1.480;2023-11-18T16:42:24;20.75;;;4.90;;